Young, Australia
Current Conditions -  °F | °C
As of 5:00 AM on Sunday 26 Oct 2014 (Local Time) from YSWG Reporting Station
Clear Clear  
Wind Chill: 61°   Ceiling: Unl
Heat Index: 61°   Visibility: 6mi
Dew Point: 50°   Wind: 5mph
Humidity: 68%   Direction: 340°NNW
Pressure: 29.83"   Gusts: NA
Location:  34.31°S, 148.3°E
Report Text: YSWG 251800Z AUTO 34004KT 9999 // NCD 16/10 Q1010
Loading
Personal Weather Stations






























Interactive Weather Map
Tropical Storm Tracking
New forecast layout! Learn more

10-Day Weather Forecast

Advertisements
Track Severe Weather on mobile